La Ward, Texas
Current Conditions -  °F | °C
As of 12:53 PM on Monday 22 Dec 2014 (Local Time) from KPSX Reporting Station
Clear Clear  
Wind Chill: 69°   Ceiling: Unl
Heat Index: 69°   Visibility: 10mi
Dew Point: 62°   Wind: 14mph
Humidity: 78%   Direction: 200°SSW
Pressure: 29.7"   Gusts: NA
Location:  28.84°N, 96.46°W
Report Text: KPSX 221853Z AUTO 20012KT 10SM CLR 21/17 A2970 RMK AO2 SLP058 T02060167
Loading
Personal Weather Stations






























Interactive Weather Map New forecast layout! Learn more

10-Day Weather Forecast

Advertisements
Track Severe Weather on mobile